< Typhoon 201907 2019 Season Typhoon 201909 >
Typhoon 201908 (FRANCISCO)
General InformationTrack Information on Google MapsDetailed Wind InformationForecast History on Google MapsAccess Analytics MapList of All Images || NewsDisaster Info.WeblogTrackbackTyphoon FrontTwiphoonTyphoon Now!Typhoon ImaginationJMA Disaster Info. XMLResourceGoogle EarthGE AnimationAtom FeedGeoJSON
Detalied Best Track (Time Zone = UTC)
Year Month Day Hour Lat. Long. Pressure (hPa) Wind (kt) Class Image Chart
2019 8 1 00 17.4 154.7 1002 0 2 Image Chart
2019 8 1 06 18.1 154.4 1002 0 2 Image Chart
2019 8 1 12 18.7 154.1 1002 0 2 Image Chart
2019 8 1 18 19.5 153.5 1000 0 2 Image Chart
2019 8 2 00 20.3 152.9 1000 0 2 Image Chart
2019 8 2 06 21.3 152.1 1000 0 2 Image Chart
2019 8 2 12 22.3 151.2 998 35 3 Image Chart
2019 8 2 18 23.3 150.0 998 35 3 Image Chart
2019 8 3 00 24.3 148.6 998 35 3 Image Chart
2019 8 3 06 25.1 147.4 996 40 3 Image Chart
2019 8 3 12 25.9 146.1 996 40 3 Image Chart
2019 8 3 15 26.3 145.3 996 40 3 Image Chart
2019 8 3 18 26.7 144.6 992 45 3 Image Chart
2019 8 3 21 27.1 143.9 990 50 4 Image Chart
2019 8 4 00 27.6 143.1 990 50 4 Image Chart
2019 8 4 03 28.1 142.3 990 50 4 Image Chart
2019 8 4 06 28.6 141.4 990 50 4 Image Chart
2019 8 4 12 29.2 140.1 985 55 4 Image Chart
2019 8 4 18 29.9 138.2 980 60 4 Image Chart
2019 8 5 00 30.4 136.2 980 60 4 Image Chart
2019 8 5 06 30.8 134.6 980 60 4 Image Chart
2019 8 5 09 31.0 133.8 975 65 5 Image Chart
2019 8 5 12 31.2 133.0 970 70 5 Image Chart
2019 8 5 15 31.4 132.4 970 70 5 Image Chart
2019 8 5 18 31.8 131.9 970 70 5 Image Chart
2019 8 5 20 31.9 131.5 970 70 5 Image Chart
2019 8 5 21 32.1 131.3 975 65 5 Image Chart
2019 8 6 00 32.8 130.6 992 45 3 Image Chart
2019 8 6 03 33.4 130.0 996 40 3 Image Chart
2019 8 6 06 34.0 129.8 998 35 3 Image Chart
2019 8 6 12 35.1 129.5 1000 35 3 Image Chart
2019 8 6 18 36.7 128.8 1000 35 3 Image Chart
2019 8 7 00 37.9 129.0 1000 0 2 Image Chart
2019 8 7 06 38.7 129.2 1002 0 2 Image Chart
2019 8 7 12 39.6 129.7 1002 0 2 Image Chart
2019 8 7 18 40.8 130.9 1000 0 2 Image Chart
2019 8 8 00 41.5 132.7 1000 0 2 Image Chart
2019 8 8 06 42.5 135.3 1000 0 2 Image Chart
2019 8 8 12 42.8 137.1 1000 0 2 Image Chart
2019 8 8 18 43.0 139.5 996 0 6 Image Chart
2019 8 9 00 42.9 142.0 1000 0 6 Image Chart
2019 8 9 06 41.9 145.5 1002 0 6 Image Chart
2019 8 9 12 41.0 148.7 1002 0 6 Image Chart
2019 8 9 18 40.6 152.0 1004 0 6 Image Chart
2019 8 10 00 40.3 155.5 1006 0 6 Image Chart
2019 8 10 06 40.0 159.2 1006 0 6 Image Chart
2019 8 10 12 40.2 163.1 1006 0 6 Image Chart
2019 8 10 18 41.0 167.1 1006 0 6 Image Chart
2019 8 11 00 41.5 170.1 1006 0 6 Image Chart
2019 8 11 06 42.5 172.2 1006 0 6 Image Chart
Japan Meteorological Agency Best Track Data | Correction Date : 2019-10-02
< Typhoon 201907 2019 Season Typhoon 201909 >

Help